createdAt,value
2023-01-26T00:01:19.046Z,9.63
2023-01-26T00:03:51.933Z,9.43
2023-01-26T00:06:23.087Z,9.75
2023-01-26T00:08:56.010Z,9.75
2023-01-26T00:11:28.399Z,9.20
2023-01-26T00:13:58.949Z,9.15
2023-01-26T00:16:36.168Z,9.68
2023-01-26T00:19:11.144Z,9.73
2023-01-26T00:21:43.422Z,8.55
2023-01-26T00:24:14.914Z,9.70
2023-01-26T00:26:50.741Z,9.15
2023-01-26T00:29:22.864Z,9.05
2023-01-26T00:31:51.654Z,8.45
2023-01-26T00:34:20.214Z,8.27
2023-01-26T00:36:56.523Z,8.38
2023-01-26T00:39:46.493Z,8.23
2023-01-26T00:43:13.538Z,8.30
2023-01-26T00:45:20.081Z,8.18
2023-01-26T00:47:52.027Z,7.97
2023-01-26T00:50:26.377Z,7.72
2023-01-26T00:53:36.853Z,8.85
2023-01-26T00:56:17.649Z,8.80
2023-01-26T00:58:46.528Z,8.30
2023-01-26T01:01:24.374Z,8.47
2023-01-26T01:03:56.391Z,8.23
2023-01-26T01:06:25.805Z,8.15
2023-01-26T01:08:55.900Z,8.05
2023-01-26T01:11:27.098Z,8.38
2023-01-26T01:13:55.817Z,7.95
2023-01-26T01:16:26.130Z,7.88
2023-01-26T01:18:55.516Z,7.95
2023-01-26T01:21:27.308Z,8.20
2023-01-26T01:23:57.413Z,7.13
2023-01-26T01:26:27.714Z,8.35
2023-01-26T01:28:59.635Z,7.07
2023-01-26T01:31:29.534Z,7.57
2023-01-26T01:33:58.844Z,7.20
2023-01-26T01:36:27.510Z,7.25
2023-01-26T01:38:57.609Z,7.97
2023-01-26T01:41:26.437Z,8.05
2023-01-26T01:44:17.768Z,7.38
2023-01-26T01:46:51.601Z,7.65
2023-01-26T01:49:24.194Z,7.82
2023-01-26T01:51:56.862Z,7.45
2023-01-26T01:54:32.910Z,8.23
2023-01-26T01:57:06.307Z,7.40
2023-01-26T01:59:35.824Z,9.02
2023-01-26T02:02:04.889Z,7.40
2023-01-26T02:04:33.523Z,7.97
2023-01-26T02:07:05.666Z,7.75
2023-01-26T02:09:57.079Z,7.70
2023-01-26T02:12:30.360Z,8.27
2023-01-26T02:15:00.039Z,7.55
2023-01-26T02:20:05.675Z,7.28
2023-01-26T02:22:46.741Z,7.05
2023-01-26T02:25:28.600Z,7.20
2023-01-26T02:27:58.815Z,8.23
2023-01-26T02:30:29.684Z,7.68
2023-01-26T02:32:58.360Z,7.65
2023-01-26T02:35:27.390Z,7.50
2023-01-26T02:37:56.059Z,7.95
2023-01-26T02:40:38.974Z,7.50
2023-01-26T02:43:07.966Z,7.35
2023-01-26T02:45:41.772Z,8.13
2023-01-26T02:48:10.444Z,7.38
2023-01-26T02:50:45.981Z,7.72
2023-01-26T02:53:25.935Z,7.22
2023-01-26T02:55:56.585Z,7.30
2023-01-26T02:58:30.460Z,8.73
2023-01-26T03:00:59.687Z,7.78
2023-01-26T03:03:41.995Z,8.73
2023-01-26T03:06:11.705Z,7.90
2023-01-26T03:08:41.429Z,7.68
2023-01-26T03:11:10.759Z,7.80
2023-01-26T03:13:41.030Z,7.82
2023-01-26T03:16:12.117Z,8.75
2023-01-26T03:18:58.435Z,8.00
2023-01-26T03:21:44.525Z,7.65
2023-01-26T03:24:33.162Z,9.15
2023-01-26T03:27:22.928Z,8.75
2023-01-26T03:29:54.131Z,9.30
2023-01-26T03:32:23.004Z,9.70
2023-01-26T03:37:22.799Z,9.30
2023-01-26T03:40:20.460Z,9.98
2023-01-26T03:43:06.848Z,12.05
2023-01-26T03:45:54.778Z,10.05
2023-01-26T03:48:43.611Z,10.95
2023-01-26T03:51:29.685Z,11.85
2023-01-26T03:54:16.084Z,11.55
2023-01-26T03:56:45.255Z,12.80
2023-01-26T03:59:38.352Z,14.18
2023-01-26T04:02:31.355Z,12.73
2023-01-26T04:05:18.452Z,13.05
2023-01-26T04:08:09.108Z,13.98
2023-01-26T04:10:37.798Z,13.95
2023-01-26T04:13:24.454Z,14.30
2023-01-26T04:16:20.428Z,14.20
2023-01-26T04:19:08.205Z,16.15
2023-01-26T04:21:37.724Z,14.18
2023-01-26T04:24:17.109Z,16.13
2023-01-26T04:26:47.462Z,15.30
2023-01-26T04:29:20.725Z,15.45
2023-01-26T04:31:49.667Z,15.77
2023-01-26T04:34:23.479Z,15.90
2023-01-26T04:36:52.460Z,14.95
2023-01-26T04:39:25.491Z,14.95
2023-01-26T04:41:57.305Z,16.45
2023-01-26T04:44:27.356Z,16.08
2023-01-26T04:46:56.068Z,16.15
2023-01-26T04:49:26.277Z,17.40
2023-01-26T04:51:54.951Z,16.45
2023-01-26T04:54:24.632Z,17.98
2023-01-26T04:59:22.967Z,17.10
2023-01-26T05:01:55.972Z,17.98
2023-01-26T05:04:26.452Z,16.42
2023-01-26T05:06:55.783Z,17.40
2023-01-26T05:09:27.345Z,17.10
2023-01-26T05:12:31.866Z,17.63
2023-01-26T05:15:19.469Z,18.92
2023-01-26T05:18:17.633Z,18.65
2023-01-26T05:21:11.858Z,17.25
2023-01-26T05:23:44.547Z,17.38
2023-01-26T05:26:39.659Z,19.27
2023-01-26T05:29:13.342Z,19.40
2023-01-26T05:31:42.843Z,17.58
2023-01-26T05:36:55.820Z,17.95
2023-01-26T05:39:33.656Z,18.83
2023-01-26T05:42:06.866Z,20.13
2023-01-26T05:45:02.526Z,18.02
2023-01-26T05:47:32.434Z,20.63
2023-01-26T05:50:06.758Z,20.00
2023-01-26T05:53:00.815Z,19.38
2023-01-26T05:55:55.001Z,19.67
2023-01-26T05:58:38.188Z,19.75
2023-01-26T06:01:12.361Z,19.15
2023-01-26T06:03:53.806Z,19.33
2023-01-26T06:06:36.943Z,22.08
2023-01-26T06:09:27.617Z,20.83
2023-01-26T06:12:23.788Z,21.25
2023-01-26T06:15:00.952Z,20.55
2023-01-26T06:17:38.863Z,22.50
2023-01-26T06:20:12.751Z,20.88
2023-01-26T06:22:41.821Z,22.05
2023-01-26T06:25:14.525Z,19.93
2023-01-26T06:27:43.503Z,21.17
2023-01-26T06:30:20.163Z,21.67
2023-01-26T06:32:53.637Z,22.40
2023-01-26T06:35:25.265Z,21.52
2023-01-26T06:37:57.202Z,21.42
2023-01-26T06:40:27.478Z,21.50
2023-01-26T06:42:56.311Z,22.05
2023-01-26T06:45:26.543Z,23.90
2023-01-26T06:47:56.633Z,23.13
2023-01-26T06:50:34.520Z,22.15
2023-01-26T06:53:06.016Z,21.63
2023-01-26T06:55:48.486Z,21.23
2023-01-26T06:58:35.163Z,21.60
2023-01-26T07:01:26.104Z,23.07
2023-01-26T07:03:59.989Z,21.33
2023-01-26T07:06:29.096Z,21.95
2023-01-26T07:08:58.895Z,20.50
2023-01-26T07:14:00.994Z,22.38
2023-01-26T07:16:31.939Z,22.48
2023-01-26T07:19:02.622Z,22.55
2023-01-26T07:21:32.884Z,20.42
2023-01-26T07:24:01.680Z,22.30
2023-01-26T07:26:31.952Z,24.55
2023-01-26T07:29:02.329Z,22.92
2023-01-26T07:31:35.418Z,25.25
2023-01-26T07:34:09.304Z,23.48
2023-01-26T07:36:48.863Z,21.98
2023-01-26T07:39:23.907Z,20.83
2023-01-26T07:41:54.196Z,22.65
2023-01-26T07:44:50.292Z,22.80
2023-01-26T07:47:20.170Z,21.23
2023-01-26T07:52:17.385Z,22.42
2023-01-26T07:54:46.183Z,24.03
2023-01-26T07:57:16.284Z,23.50
2023-01-26T07:59:44.904Z,22.75
2023-01-26T08:02:13.724Z,23.33
2023-01-26T08:04:42.307Z,22.73
2023-01-26T08:07:10.953Z,21.02
2023-01-26T08:09:39.871Z,22.00
2023-01-26T08:12:08.703Z,23.08
2023-01-26T08:14:46.796Z,20.57
2023-01-26T08:17:17.686Z,22.73
2023-01-26T08:19:46.703Z,21.20
2023-01-26T08:22:15.644Z,21.00
2023-01-26T08:24:44.231Z,23.35
2023-01-26T08:27:12.942Z,23.45
2023-01-26T08:29:43.043Z,23.33
2023-01-26T08:32:11.872Z,22.90
2023-01-26T08:34:40.648Z,20.02
2023-01-26T08:37:09.313Z,20.08
2023-01-26T08:39:38.076Z,18.80
2023-01-26T08:42:06.864Z,23.75
2023-01-26T08:44:35.789Z,20.52
2023-01-26T08:47:06.144Z,19.03
2023-01-26T08:49:34.830Z,21.13
2023-01-26T08:52:03.509Z,20.20
2023-01-26T08:54:32.191Z,18.77
2023-01-26T08:57:00.867Z,20.95
2023-01-26T08:59:29.543Z,25.15
2023-01-26T09:01:58.374Z,16.58
2023-01-26T09:04:28.710Z,17.52
2023-01-26T09:06:57.467Z,17.80
2023-01-26T09:09:26.431Z,18.07
2023-01-26T09:11:57.129Z,18.77
2023-01-26T09:14:25.858Z,16.92
2023-01-26T09:16:54.843Z,18.92
2023-01-26T09:19:23.649Z,17.77
2023-01-26T09:21:57.532Z,17.83
2023-01-26T09:24:26.441Z,17.88
2023-01-26T09:26:55.169Z,17.58
2023-01-26T09:29:23.941Z,16.98
2023-01-26T09:31:52.749Z,18.77
2023-01-26T09:34:21.529Z,16.70
2023-01-26T09:36:50.341Z,15.93
2023-01-26T09:39:20.642Z,17.10
2023-01-26T09:42:04.491Z,17.08
2023-01-26T09:44:39.310Z,19.23
2023-01-26T09:47:15.776Z,18.20
2023-01-26T09:49:50.128Z,19.30
2023-01-26T09:52:27.708Z,19.67
2023-01-26T09:55:04.801Z,17.40
2023-01-26T09:57:38.866Z,17.67
2023-01-26T10:00:11.560Z,18.08
2023-01-26T10:02:53.395Z,19.08
2023-01-26T10:05:31.592Z,17.35
2023-01-26T10:08:12.929Z,18.52
2023-01-26T10:10:49.017Z,19.67
2023-01-26T10:13:21.185Z,20.23
2023-01-26T10:15:53.356Z,18.77
2023-01-26T10:18:27.542Z,28.55
2023-01-26T10:20:59.897Z,23.00
2023-01-26T10:23:31.030Z,23.42
2023-01-26T10:26:14.254Z,18.85
2023-01-26T10:28:44.717Z,19.70
2023-01-26T10:31:17.481Z,17.95
2023-01-26T10:33:52.509Z,17.88
2023-01-26T10:36:21.973Z,19.90
2023-01-26T10:38:50.858Z,17.30
2023-01-26T10:41:32.566Z,18.67
2023-01-26T10:44:05.056Z,18.27
2023-01-26T10:46:35.802Z,18.10
2023-01-26T10:49:15.717Z,18.17
2023-01-26T10:51:46.135Z,20.00
2023-01-26T10:54:33.885Z,18.02
2023-01-26T10:57:07.450Z,18.08
2023-01-26T10:59:40.865Z,18.65
2023-01-26T11:02:24.205Z,20.20
2023-01-26T11:05:16.501Z,19.88
2023-01-26T11:07:46.618Z,21.15
2023-01-26T11:10:25.593Z,17.80
2023-01-26T11:13:19.486Z,20.30
2023-01-26T11:15:49.601Z,19.83
2023-01-26T11:18:29.456Z,20.65
2023-01-26T11:23:42.358Z,19.95
2023-01-26T11:26:32.943Z,21.38
2023-01-26T11:29:30.726Z,19.10
2023-01-26T11:32:07.725Z,21.27
2023-01-26T11:34:49.410Z,20.75
2023-01-26T11:37:41.059Z,19.80
2023-01-26T11:40:25.487Z,19.85
2023-01-26T11:43:07.227Z,20.58
2023-01-26T11:45:48.970Z,20.17
2023-01-26T11:48:27.210Z,20.10
2023-01-26T11:50:59.232Z,20.83
2023-01-26T11:53:57.219Z,21.92
2023-01-26T11:56:34.126Z,172.75
2023-01-26T11:59:10.069Z,28.63
2023-01-26T12:01:46.105Z,28.05
2023-01-26T12:05:14.769Z,23.58
2023-01-26T12:08:19.221Z,25.67
2023-01-26T12:14:17.243Z,22.38
2023-01-26T12:17:15.599Z,22.35
2023-01-26T12:19:54.638Z,22.25
2023-01-26T12:22:27.566Z,19.30
2023-01-26T12:25:18.674Z,21.00
2023-01-26T12:27:54.552Z,20.23
2023-01-26T12:30:33.164Z,19.88
2023-01-26T12:33:04.069Z,19.90
2023-01-26T12:35:45.497Z,22.17
2023-01-26T12:38:19.866Z,22.05
2023-01-26T12:41:02.351Z,22.27
2023-01-26T12:43:43.414Z,22.33
2023-01-26T12:46:14.000Z,21.98
2023-01-26T12:48:47.282Z,22.42
2023-01-26T12:51:21.887Z,22.00
2023-01-26T12:53:57.507Z,20.77
2023-01-26T12:56:30.431Z,21.23
2023-01-26T12:59:01.869Z,22.90
2023-01-26T13:01:41.083Z,24.33
2023-01-26T13:04:12.927Z,23.27
2023-01-26T13:06:41.938Z,35.85
2023-01-26T13:09:23.084Z,28.63
2023-01-26T13:11:53.811Z,25.58
2023-01-26T13:14:31.760Z,37.65
2023-01-26T13:17:39.830Z,24.40
2023-01-26T13:20:45.859Z,31.15
2023-01-26T13:23:47.355Z,26.63
2023-01-26T13:26:19.374Z,25.55
2023-01-26T13:28:51.179Z,23.90
2023-01-26T13:31:35.954Z,24.73
2023-01-26T13:34:10.639Z,23.73
2023-01-26T13:36:43.708Z,23.25
2023-01-26T13:39:19.723Z,25.83
2023-01-26T13:41:49.247Z,28.85
2023-01-26T13:44:23.654Z,25.80
2023-01-26T13:46:56.740Z,30.63
2023-01-26T13:49:29.052Z,27.75
2023-01-26T13:51:57.720Z,26.98
2023-01-26T13:54:28.049Z,29.63
2023-01-26T13:57:05.034Z,27.83
2023-01-26T13:59:34.565Z,26.15
2023-01-26T14:02:03.423Z,27.58
2023-01-26T14:04:35.381Z,29.47
2023-01-26T14:07:07.608Z,29.20
2023-01-26T14:09:49.065Z,28.15
2023-01-26T14:12:23.822Z,27.60
2023-01-26T14:14:55.228Z,26.95
2023-01-26T14:17:28.796Z,31.80
2023-01-26T14:20:00.253Z,28.42
2023-01-26T14:22:29.400Z,29.77
2023-01-26T14:24:57.956Z,27.52
2023-01-26T14:27:37.590Z,27.40
2023-01-26T14:33:00.056Z,25.98
2023-01-26T14:35:30.333Z,25.20
2023-01-26T14:38:18.080Z,25.58
2023-01-26T14:40:47.885Z,27.30
2023-01-26T14:45:50.149Z,29.55
2023-01-26T14:48:21.863Z,28.98
2023-01-26T14:50:51.920Z,28.05
2023-01-26T14:53:23.085Z,27.42
2023-01-26T14:55:53.365Z,26.42
2023-01-26T14:58:25.336Z,25.50
2023-01-26T15:00:54.360Z,25.73
2023-01-26T15:03:27.551Z,28.27
2023-01-26T15:06:17.007Z,26.88
2023-01-26T15:08:56.317Z,26.70
2023-01-26T15:11:51.710Z,25.88
2023-01-26T15:14:34.180Z,25.80
2023-01-26T15:17:02.952Z,25.42
2023-01-26T15:19:39.633Z,25.73
2023-01-26T15:22:23.132Z,26.63
2023-01-26T15:25:06.654Z,26.05
2023-01-26T15:27:36.856Z,23.98
2023-01-26T15:30:08.213Z,26.63
2023-01-26T15:32:41.270Z,26.23
2023-01-26T15:35:22.273Z,26.30
2023-01-26T15:38:02.067Z,26.75
2023-01-26T15:43:13.606Z,23.92
2023-01-26T15:45:52.964Z,24.27
2023-01-26T15:48:22.598Z,24.98
2023-01-26T15:50:51.498Z,25.35
2023-01-26T15:53:23.302Z,26.42
2023-01-26T15:55:55.439Z,26.20
2023-01-26T15:58:24.653Z,26.30
2023-01-26T16:00:53.850Z,28.08
2023-01-26T16:03:23.573Z,27.45
2023-01-26T16:05:52.136Z,26.77
2023-01-26T16:08:22.352Z,26.75
2023-01-26T16:10:50.928Z,24.52
2023-01-26T16:13:21.207Z,26.92
2023-01-26T16:15:52.181Z,27.73
2023-01-26T16:18:22.672Z,28.27
2023-01-26T16:20:52.063Z,26.10
2023-01-26T16:23:26.289Z,27.55
2023-01-26T16:25:55.301Z,26.35
2023-01-26T16:28:24.253Z,27.95
2023-01-26T16:30:53.207Z,27.43
2023-01-26T16:33:22.577Z,29.02
2023-01-26T16:35:51.683Z,26.80
2023-01-26T16:38:22.372Z,26.10
2023-01-26T16:40:51.724Z,25.88
2023-01-26T16:43:28.125Z,28.45
2023-01-26T16:45:58.023Z,23.92
2023-01-26T16:48:29.062Z,24.58
2023-01-26T16:50:58.022Z,24.73
2023-01-26T16:53:30.477Z,25.05
2023-01-26T16:56:00.819Z,25.27
2023-01-26T16:58:32.821Z,24.98
2023-01-26T17:01:02.233Z,23.55
2023-01-26T17:03:31.185Z,25.57
2023-01-26T17:06:00.381Z,25.83
2023-01-26T17:08:30.913Z,24.52
2023-01-26T17:11:02.711Z,25.00
2023-01-26T17:13:32.802Z,23.55
2023-01-26T17:16:01.914Z,23.17
2023-01-26T17:18:33.599Z,24.02
2023-01-26T17:21:06.339Z,25.27
2023-01-26T17:23:38.492Z,23.20
2023-01-26T17:26:08.241Z,26.02
2023-01-26T17:28:37.181Z,23.30
2023-01-26T17:31:10.883Z,23.88
2023-01-26T17:33:40.140Z,24.23
2023-01-26T17:36:09.845Z,24.92
2023-01-26T17:38:41.349Z,22.52
2023-01-26T17:41:11.737Z,23.17
2023-01-26T17:43:40.579Z,23.88
2023-01-26T17:46:12.030Z,24.73
2023-01-26T17:48:43.023Z,25.40
2023-01-26T17:51:16.688Z,25.30
2023-01-26T17:53:49.666Z,24.23
2023-01-26T17:56:20.453Z,24.02
2023-01-26T17:58:53.257Z,50.25
2023-01-26T18:01:24.702Z,74.63
2023-01-26T18:03:54.911Z,27.85
2023-01-26T18:06:24.393Z,27.83
2023-01-26T18:08:56.157Z,30.55
2023-01-26T18:11:25.387Z,24.40
2023-01-26T18:13:55.886Z,25.38
2023-01-26T18:16:25.241Z,22.63
2023-01-26T18:18:56.656Z,24.45
2023-01-26T18:21:27.263Z,23.83
2023-01-26T18:24:00.833Z,23.88
2023-01-26T18:26:32.901Z,25.95
2023-01-26T18:29:02.230Z,24.75
2023-01-26T18:31:32.684Z,25.52
2023-01-26T18:34:03.391Z,24.50
2023-01-26T18:36:33.092Z,24.90
2023-01-26T18:41:35.849Z,21.88
2023-01-26T18:44:05.056Z,21.70
2023-01-26T18:46:34.385Z,22.38
2023-01-26T18:49:03.786Z,22.60
2023-01-26T18:51:34.498Z,23.85
2023-01-26T18:54:06.045Z,21.90
2023-01-26T18:56:36.519Z,22.75
2023-01-26T18:59:05.449Z,22.88
2023-01-26T19:01:34.527Z,21.23
2023-01-26T19:04:04.336Z,22.37
2023-01-26T19:09:09.820Z,20.17
2023-01-26T19:11:39.692Z,20.85
2023-01-26T19:14:09.523Z,21.33
2023-01-26T19:16:38.457Z,22.23
2023-01-26T19:19:07.283Z,23.73
2023-01-26T19:21:35.955Z,23.07
2023-01-26T19:24:07.466Z,20.88
2023-01-26T19:26:36.268Z,21.30
2023-01-26T19:29:05.376Z,22.15
2023-01-26T19:31:35.775Z,22.55
2023-01-26T19:34:06.302Z,21.58
2023-01-26T19:36:36.514Z,22.38
2023-01-26T19:39:07.458Z,21.92
2023-01-26T19:41:36.261Z,20.98
2023-01-26T19:44:04.852Z,20.67
2023-01-26T19:46:33.916Z,20.38
2023-01-26T19:49:02.649Z,14.77
2023-01-26T19:51:31.385Z,9.50
2023-01-26T19:54:00.510Z,7.43
2023-01-26T19:56:32.005Z,17.25
2023-01-26T19:59:02.836Z,4.55
2023-01-26T20:01:32.277Z,3.80
2023-01-26T20:04:03.549Z,3.22
2023-01-26T20:06:33.947Z,1.50
2023-01-26T20:09:04.341Z,2.08
2023-01-26T20:11:34.989Z,4.53
2023-01-26T20:14:05.944Z,3.65
2023-01-26T20:16:35.389Z,2.10
2023-01-26T20:19:04.401Z,2.63
2023-01-26T20:21:33.843Z,3.38
2023-01-26T20:24:06.812Z,1.77
2023-01-26T20:26:37.315Z,2.67
2023-01-26T20:29:08.368Z,1.98
2023-01-26T20:31:37.152Z,1.90
2023-01-26T20:34:06.014Z,3.10
2023-01-26T20:36:35.477Z,3.58
2023-01-26T20:39:05.394Z,3.05
2023-01-26T20:41:36.630Z,3.63
2023-01-26T20:44:07.146Z,3.80
2023-01-26T20:46:38.894Z,3.50
2023-01-26T20:49:09.759Z,3.05
2023-01-26T20:51:39.638Z,3.17
2023-01-26T20:54:08.960Z,4.30
2023-01-26T20:56:39.255Z,3.05
2023-01-26T20:59:09.079Z,3.13
2023-01-26T21:04:06.930Z,2.70
2023-01-26T21:06:36.443Z,2.92
2023-01-26T21:09:06.244Z,2.40
2023-01-26T21:14:05.754Z,2.10
2023-01-26T21:16:35.817Z,1.65
2023-01-26T21:19:04.634Z,2.40
2023-01-26T21:21:33.460Z,3.47
2023-01-26T21:24:02.123Z,1.70
2023-01-26T21:26:30.657Z,3.25
2023-01-26T21:29:00.800Z,2.60
2023-01-26T21:31:34.114Z,2.00
2023-01-26T21:34:02.978Z,2.30
2023-01-26T21:36:34.232Z,1.90
2023-01-26T21:39:03.487Z,2.95
2023-01-26T21:41:51.523Z,2.00
2023-01-26T21:44:21.678Z,2.42
2023-01-26T21:46:53.448Z,4.20
2023-01-26T21:49:22.930Z,3.88
2023-01-26T21:52:09.483Z,3.33
2023-01-26T21:54:38.383Z,4.90
2023-01-26T21:57:29.897Z,6.20
2023-01-26T21:59:57.619Z,2.70
2023-01-26T22:02:27.596Z,6.97
2023-01-26T22:04:56.230Z,7.38
2023-01-26T22:07:24.757Z,3.70
2023-01-26T22:09:53.484Z,4.05
2023-01-26T22:12:23.094Z,3.60
2023-01-26T22:14:52.523Z,4.45
2023-01-26T22:17:21.138Z,7.53
2023-01-26T22:19:51.270Z,3.10
2023-01-26T22:22:19.943Z,3.22
2023-01-26T22:24:48.649Z,5.38
2023-01-26T22:27:17.232Z,9.05
2023-01-26T22:29:45.844Z,6.95
2023-01-26T22:32:14.889Z,6.55
2023-01-26T22:34:43.870Z,2.40
2023-01-26T22:37:14.321Z,9.95
2023-01-26T22:39:43.311Z,6.32
2023-01-26T22:42:11.950Z,3.30
2023-01-26T22:44:40.600Z,5.55
2023-01-26T22:47:09.330Z,3.40
2023-01-26T22:49:38.922Z,6.30
2023-01-26T22:52:07.522Z,3.38
2023-01-26T22:54:37.652Z,3.10
2023-01-26T22:57:06.231Z,6.40
2023-01-26T22:59:34.775Z,7.53
2023-01-26T23:02:03.437Z,3.35
2023-01-26T23:04:32.040Z,4.00
2023-01-26T23:07:01.792Z,6.68
2023-01-26T23:09:30.628Z,6.70
2023-01-26T23:12:04.523Z,6.25
2023-01-26T23:14:34.283Z,7.50
2023-01-26T23:17:03.050Z,2.85
2023-01-26T23:19:33.712Z,6.47
2023-01-26T23:22:02.358Z,5.47
2023-01-26T23:24:30.979Z,3.35
2023-01-26T23:26:59.591Z,6.28
2023-01-26T23:29:29.661Z,3.45
2023-01-26T23:31:58.348Z,3.10
2023-01-26T23:34:26.991Z,5.13
2023-01-26T23:36:55.538Z,5.82
2023-01-26T23:39:24.400Z,9.55
2023-01-26T23:41:52.899Z,3.30
2023-01-26T23:44:21.481Z,2.63
2023-01-26T23:46:51.868Z,2.40
2023-01-26T23:49:20.925Z,6.07
2023-01-26T23:51:49.463Z,4.03
2023-01-26T23:54:18.089Z,2.60
2023-01-26T23:56:47.830Z,3.58
